Rogers City, MI

7:29 PM EDT on September 29, 2016 (GMT -0400)
Presque Isle County

Weather History for KPZQ - May, 2013

Change the Weather History Date:

Friday, May 10, 2013

  Actual Average (KAPN) Record (KAPN)
Temperature  
Mean Temperature 38 °F 51 °F  
Max Temperature 41 °F 63 °F 88 °F (1953)
Min Temperature 36 °F 39 °F 22 °F (1962)
Degree Days  
Heating Degree Days 26 15  
Month to date heating degree days 160  
Since 1 July heating degree days 7719  
Cooling Degree Days 0 0  
Month to date cooling degree days 0  
Year to date cooling degree days 2  
Moisture  
Dew Point 35 °F    
Average Humidity 89    
Maximum Humidity 95    
Minimum Humidity 71    
Precipitation  
Precipitation 0.00 in 0.08 in 1.27 in (2013)
Month to date precipitation 0.79  
Year to date precipitation 8.02  
Sea Level Pressure  
Sea Level Pressure 30.01 in    
Wind  
Wind Speed 8 mph (NNE)    
Max Wind Speed 14 mph    
Max Gust Speed 20 mph    
Visibility 7 miles    
Events Rain    
T = Trace of Precipitation, MM = Missing Value Source: NWS Daily Summary

Daily Weather History Graph

Daily Weather History Graph

Search for Another Location

Airport or City:

Trip Planner

Search our weather history database for the weather conditions in past years. The results will help you decide how hot, cold, wet, or windy it might be!

Date:

Astronomy

May. 10, 2013 Rise Set
Actual Time 6:10 AM EDT 8:53 PM EDT
Civil Twilight 5:36 AM EDT 9:27 PM EDT
Nautical Twilight 4:54 AM EDT 10:10 PM EDT
Astronomical Twilight 4:04 AM EDT 11:00 PM EDT
Moon 6:34 AM EDT (5/10) 9:43 PM EDT (5/10)
Length of Visible Light 15h 50m
Length of Day
14h 42m
New Moon, 0% of the Moon is Illuminated
May 10
New Moon
May 18
First Quarter
May 25
Full
May 31
Last Quarter
Jun 8
New

Hourly Weather History & Observations

Time (EDT) Temp. Windchill Dew Point Humidity Pressure Visibility Wind Dir Wind Speed Gust Speed Precip Events Conditions
12:15 AM 41.9 °F 39.0 °F 37.9 °F 86% 30.07 in 10.0 mi North 4.6 mph - N/A Rain Light Rain
12:35 AM 41.4 °F 36.8 °F 37.9 °F 88% 30.07 in 7.0 mi North 6.9 mph - N/A Rain Rain
12:54 AM 41.0 °F 36.4 °F 37.9 °F 89% 30.07 in 10.0 mi NNE 6.9 mph - N/A Rain Rain
1:15 AM 41.0 °F 36.4 °F 37.8 °F 88% 30.07 in 10.0 mi NNE 6.9 mph 16.1 mph N/A Rain Light Rain
1:55 AM 40.3 °F 37.1 °F 37.4 °F 89% 30.08 in 7.0 mi NNE 4.6 mph - N/A Rain Rain
2:15 AM 40.1 °F 38.0 °F 37.4 °F 90% 30.07 in 7.0 mi NNE 3.5 mph - N/A Rain Light Rain
2:34 AM 39.7 °F 34.9 °F 37.4 °F 91% 30.07 in 5.0 mi NE 6.9 mph - N/A Rain Rain
2:55 AM 39.4 °F 33.8 °F 37.2 °F 92% 30.06 in 7.0 mi NE 8.1 mph - N/A Rain Light Rain
3:15 AM 39.4 °F 36.1 °F 37.4 °F 93% 30.07 in 7.0 mi NE 4.6 mph - N/A Rain Rain
3:35 AM 39.2 °F 34.2 °F 37.0 °F 92% 30.07 in 5.0 mi NE 6.9 mph - N/A Rain Rain
3:55 AM 39.0 °F 34.0 °F 36.9 °F 92% 30.06 in 7.0 mi NE 6.9 mph - N/A Rain Rain
4:15 AM 38.5 °F 32.1 °F 36.7 °F 93% 30.05 in 7.0 mi NE 9.2 mph - N/A Rain Light Rain
4:35 AM 38.1 °F 32.3 °F 36.3 °F 93% 30.05 in 7.0 mi NE 8.1 mph - N/A Rain Light Rain
4:55 AM 37.8 °F 31.3 °F 36.0 °F 93% 30.05 in 7.0 mi NE 9.2 mph - N/A Rain Rain
5:14 AM 37.6 °F 31.0 °F 35.8 °F 93% 30.05 in 3.0 mi NE 9.2 mph - N/A Rain Rain
5:35 AM 37.2 °F 30.6 °F 35.6 °F 94% 30.04 in 5.0 mi NE 9.2 mph 16.1 mph N/A Rain Rain
5:54 AM 36.5 °F 29.2 °F 34.9 °F 94% 30.04 in 5.0 mi NE 10.4 mph - N/A Rain Rain
6:15 AM 36.5 °F 29.7 °F 35.1 °F 95% 30.04 in 4.0 mi NE 9.2 mph 16.1 mph N/A Rain Rain
6:35 AM 36.3 °F 29.5 °F 34.7 °F 94% 30.04 in 4.0 mi NE 9.2 mph - N/A Rain Rain
6:54 AM 36.5 °F 28.7 °F 34.9 °F 94% 30.04 in 4.0 mi NE 11.5 mph 17.3 mph N/A Rain Rain
7:15 AM 36.3 °F 27.5 °F 34.7 °F 94% 30.04 in 4.0 mi NE 13.8 mph - N/A Rain Rain
7:35 AM 36.1 °F 27.7 °F 34.7 °F 94% 30.04 in 2.5 mi NE 12.7 mph 16.1 mph N/A Rain Rain
8:15 AM 36.3 °F 28.9 °F 34.7 °F 94% 30.03 in 3.0 mi NE 10.4 mph 18.4 mph N/A Rain Rain
8:34 AM 36.5 °F 27.8 °F 34.7 °F 93% 30.03 in 3.0 mi NE 13.8 mph 18.4 mph N/A Rain Rain
9:14 AM 36.5 °F 28.7 °F 35.1 °F 95% 30.02 in 3.0 mi NE 11.5 mph - N/A Rain Rain
9:35 AM 36.5 °F 28.7 °F 35.1 °F 95% 30.02 in 4.0 mi NE 11.5 mph 16.1 mph N/A Rain Rain
9:55 AM 36.5 °F 29.7 °F 34.9 °F 94% 30.02 in 3.0 mi NE 9.2 mph - N/A Rain Rain
10:15 AM 36.5 °F 29.7 °F 35.1 °F 95% 30.02 in 2.5 mi NE 9.2 mph - N/A Rain Rain
10:35 AM 36.5 °F 31.0 °F 35.1 °F 95% 30.02 in 3.0 mi NE 6.9 mph - N/A Rain Rain
10:55 AM 36.5 °F 30.3 °F 35.1 °F 95% 30.02 in 2.5 mi NNE 8.1 mph - N/A Rain Rain
11:15 AM 36.7 °F 29.4 °F 35.2 °F 95% 30.02 in 3.0 mi NNE 10.4 mph - N/A Rain Rain
11:35 AM 37.4 °F 31.4 °F 35.8 °F 94% 30.02 in 2.5 mi North 8.1 mph - N/A Rain Rain
11:55 AM 37.4 °F 31.4 °F 36.0 °F 95% 30.02 in 5.0 mi North 8.1 mph - N/A Rain Rain
12:15 PM 37.6 °F 30.0 °F 36.1 °F 95% 30.01 in 7.0 mi NNE 11.5 mph - N/A Rain Light Rain
12:35 PM 37.8 °F 31.3 °F 36.5 °F 95% 30.01 in 7.0 mi NNE 9.2 mph - N/A Rain Light Rain
1:15 PM 37.4 °F 29.8 °F 35.8 °F 94% 30.01 in 7.0 mi NNE 11.5 mph 19.6 mph N/A Rain Light Rain
1:35 PM 37.4 °F 30.3 °F 35.8 °F 94% 30.01 in 7.0 mi NNE 10.4 mph 18.4 mph N/A Rain Rain
1:55 PM 37.4 °F 30.8 °F 35.8 °F 94% 30.01 in 7.0 mi North 9.2 mph - N/A Rain Light Rain
2:15 PM 36.9 °F 29.6 °F 35.6 °F 95% 30.01 in 7.0 mi North 10.4 mph - N/A Rain Light Rain
2:35 PM 37.4 °F 29.3 °F 35.8 °F 94% 30.01 in 7.0 mi North 12.7 mph 16.1 mph N/A   Light Drizzle
2:55 PM 37.6 °F 30.0 °F 36.0 °F 94% 30.00 in 7.0 mi North 11.5 mph - N/A Rain Light Rain
3:15 PM 37.4 °F 31.4 °F 35.6 °F 93% 30.00 in 7.0 mi North 8.1 mph - N/A Rain Light Rain
3:35 PM 37.2 °F 31.2 °F 35.4 °F 93% 30.00 in 7.0 mi North 8.1 mph - N/A Rain Rain
3:54 PM 37.4 °F 29.8 °F 35.6 °F 93% 30.00 in 10.0 mi North 11.5 mph - N/A Rain Light Rain
4:15 PM 37.4 °F 30.8 °F 35.6 °F 93% 30.00 in 7.0 mi North 9.2 mph - N/A   Overcast
4:35 PM 37.6 °F 31.0 °F 35.6 °F 93% 29.99 in 7.0 mi North 9.2 mph 17.3 mph N/A   Overcast
4:55 PM 37.4 °F 31.4 °F 35.1 °F 91% 29.98 in 7.0 mi North 8.1 mph - N/A   Overcast
5:15 PM 37.8 °F 31.3 °F 35.2 °F 91% 29.98 in 7.0 mi NNE 9.2 mph - N/A   Overcast
5:35 PM 37.9 °F 32.1 °F 35.2 °F 90% 29.98 in 7.0 mi NNE 8.1 mph - N/A   Overcast
6:15 PM 37.9 °F 30.9 °F 35.1 °F 89% 29.97 in 7.0 mi North 10.4 mph - N/A   Overcast
6:34 PM 37.9 °F 32.1 °F 34.7 °F 88% 29.97 in 7.0 mi North 8.1 mph 16.1 mph N/A   Overcast
6:55 PM 38.1 °F 31.7 °F 34.3 °F 86% 29.97 in 7.0 mi North 9.2 mph 17.3 mph N/A   Overcast
7:15 PM 38.3 °F 31.9 °F 34.2 °F 85% 29.97 in 7.0 mi North 9.2 mph - N/A   Overcast
7:35 PM 38.3 °F 33.2 °F 34.0 °F 84% 29.97 in 7.0 mi North 6.9 mph - N/A   Overcast
7:55 PM 38.5 °F 35.0 °F 34.2 °F 84% 29.97 in 7.0 mi North 4.6 mph - N/A   Overcast
8:15 PM 38.5 °F 33.4 °F 34.0 °F 84% 29.97 in 10.0 mi North 6.9 mph - N/A   Overcast
8:35 PM 38.7 °F 34.3 °F 34.0 °F 83% 29.96 in 10.0 mi North 5.8 mph - N/A   Overcast
8:55 PM 39.0 °F 34.8 °F 34.0 °F 82% 29.96 in 10.0 mi North 5.8 mph - N/A   Overcast
9:15 PM 39.2 °F 35.0 °F 33.4 °F 80% 29.96 in 10.0 mi North 5.8 mph - N/A   Overcast
9:35 PM 39.4 °F - 33.4 °F 79% 29.96 in 10.0 mi Calm Calm - N/A   Overcast
9:55 PM 39.4 °F 37.2 °F 32.9 °F 78% 29.96 in 10.0 mi NNW 3.5 mph - N/A   Overcast
10:14 PM 39.6 °F 36.3 °F 32.5 °F 76% 29.96 in 10.0 mi NNW 4.6 mph - N/A   Overcast
10:35 PM 39.6 °F 36.3 °F 32.0 °F 74% 29.96 in 10.0 mi NNW 4.6 mph - N/A   Overcast
10:55 PM 40.1 °F 36.9 °F 32.0 °F 73% 29.94 in 10.0 mi NNW 4.6 mph - N/A   Overcast
11:15 PM 40.3 °F 38.2 °F 31.8 °F 72% 29.94 in 10.0 mi NNW 3.5 mph - N/A   Overcast
11:35 PM 40.3 °F 38.2 °F 31.8 °F 72% 29.93 in 10.0 mi NNW 3.5 mph - N/A   Overcast
11:55 PM 40.5 °F 38.4 °F 31.8 °F 71% 29.93 in 10.0 mi NNW 3.5 mph - N/A   Overcast